Time;durP1;ratioP1;P1;durP2;ratioP2;P2;SDS_P1;SDS_P2;PMS_P1;PMS_P2;Temp;Humidity;BMP_temperature;BMP_pressure;BME280_temperature;BME280_humidity;BME280_pressure;Samples;Min_cycle;Max_cycle;Signal;HPM_P1;HPM_P2
2022/05/04 00:01:46;;;;;;;9.73;2.67;;;5.40;99.90;;;;;;5037104;28;20173;-85
2022/05/04 00:04:13;;;;;;;11.37;3.20;;;5.40;99.90;;;;;;5054917;28;20174;-85
2022/05/04 00:06:38;;;;;;;10.37;2.60;;;5.40;99.90;;;;;;5054804;28;20177;-85
2022/05/04 00:09:04;;;;;;;6.87;3.10;;;5.20;99.90;;;;;;5037090;28;20416;-85
2022/05/04 00:11:30;;;;;;;12.67;4.30;;;5.10;99.90;;;;;;5054700;28;20688;-85
2022/05/04 00:13:55;;;;;;;6.10;3.03;;;5.10;99.90;;;;;;5054473;28;20633;-85
2022/05/04 00:16:21;;;;;;;12.50;3.13;;;5.10;99.90;;;;;;5054653;28;20507;-85
2022/05/04 00:18:46;;;;;;;6.97;3.10;;;4.90;99.90;;;;;;5036866;28;20265;-85
2022/05/04 00:21:12;;;;;;;5.37;2.50;;;4.80;99.90;;;;;;5054683;28;20205;-84
2022/05/04 00:23:37;;;;;;;8.97;3.60;;;4.60;99.90;;;;;;5054488;28;20173;-85
2022/05/04 00:26:03;;;;;;;4.03;2.13;;;4.60;99.90;;;;;;5054592;28;20171;-85
2022/05/04 00:28:29;;;;;;;4.20;2.40;;;4.60;99.90;;;;;;5054131;28;20173;-85
2022/05/04 00:30:54;;;;;;;7.47;3.30;;;4.60;99.90;;;;;;5036532;28;20546;-85
2022/05/04 00:33:20;;;;;;;7.23;3.70;;;4.60;99.90;;;;;;5054373;28;20648;-85
2022/05/04 00:35:45;;;;;;;8.80;3.77;;;4.70;99.90;;;;;;5036470;28;20176;-85
2022/05/04 00:38:10;;;;;;;13.00;4.00;;;4.80;99.90;;;;;;5054336;28;20569;-85
2022/05/04 00:40:36;;;;;;;8.53;4.00;;;4.90;99.90;;;;;;5054103;28;20173;-85
2022/05/04 00:43:02;;;;;;;10.37;3.00;;;5.00;99.90;;;;;;5035980;28;20223;-86
2022/05/04 00:45:28;;;;;;;5.80;3.20;;;5.00;99.90;;;;;;5053994;28;20729;-86
2022/05/04 00:47:53;;;;;;;7.80;3.30;;;5.00;99.90;;;;;;5061292;28;20408;-86
2022/05/04 00:50:20;;;;;;;7.43;2.77;;;4.80;99.90;;;;;;5054370;28;20839;-85
2022/05/04 00:52:47;;;;;;;6.20;3.33;;;4.80;99.90;;;;;;5054057;28;20238;-85
2022/05/04 00:55:16;;;;;;;5.60;3.13;;;4.60;99.90;;;;;;5053939;28;20447;-85
2022/05/04 01:00:27;;;;;;;4.43;3.00;;;4.40;99.90;;;;;;5054094;28;20469;-86
2022/05/04 01:02:53;;;;;;;7.60;3.60;;;4.30;99.90;;;;;;5035931;28;20424;-86
2022/05/04 01:05:18;;;;;;;8.43;2.97;;;4.20;99.90;;;;;;5035871;28;20492;-86
2022/05/04 01:07:46;;;;;;;9.10;2.70;;;4.20;99.90;;;;;;5053805;28;20257;-86
2022/05/04 01:10:13;;;;;;;7.67;3.93;;;4.20;99.90;;;;;;5053638;28;20193;-86
2022/05/04 01:12:49;;;;;;;7.23;3.47;;;4.10;99.90;;;;;;5053380;28;20467;-84
2022/05/04 01:15:15;;;;;;;5.47;3.60;;;4.00;99.90;;;;;;5053390;28;20948;-86
2022/05/04 01:17:41;;;;;;;8.10;3.43;;;4.10;99.90;;;;;;5053719;28;20840;-87
2022/05/04 01:20:08;;;;;;;7.83;3.53;;;4.00;99.90;;;;;;5053702;28;20412;-87
2022/05/04 01:22:35;;;;;;;5.60;2.70;;;4.00;99.90;;;;;;5053669;28;20206;-86
2022/05/04 01:25:00;;;;;;;3.97;2.43;;;3.90;99.90;;;;;;5053727;28;20891;-86
2022/05/04 01:27:26;;;;;;;8.63;3.47;;;3.90;99.90;;;;;;5053587;28;20450;-87
2022/05/04 01:29:52;;;;;;;5.40;3.00;;;3.90;99.90;;;;;;5053298;28;20174;-87
2022/05/04 01:32:17;;;;;;;6.40;2.20;;;3.90;99.90;;;;;;5053492;28;20476;-86
2022/05/04 01:34:43;;;;;;;4.87;3.50;;;3.90;99.90;;;;;;5053565;28;20169;-87
2022/05/04 01:37:08;;;;;;;8.73;3.10;;;3.80;99.90;;;;;;5035923;28;20223;-87
2022/05/04 01:39:34;;;;;;;8.97;3.40;;;3.70;99.90;;;;;;5053429;28;20216;-86
2022/05/04 01:42:02;;;;;;;6.60;3.60;;;3.60;99.90;;;;;;5053149;28;20276;-86
2022/05/04 01:44:34;;;;;;;6.23;1.97;;;3.60;99.90;;;;;;5052651;28;20608;-87
2022/05/04 01:47:01;;;;;;;6.60;3.03;;;3.60;99.90;;;;;;5053256;28;20410;-85
2022/05/04 01:49:27;;;;;;;6.07;3.60;;;3.60;99.90;;;;;;5053105;28;20513;-86
2022/05/04 01:51:52;;;;;;;8.07;3.63;;;3.50;99.90;;;;;;5053372;28;20556;-86
2022/05/04 01:54:18;;;;;;;5.93;3.00;;;3.40;99.90;;;;;;5053219;28;20166;-87
2022/05/04 01:56:43;;;;;;;6.20;3.03;;;3.40;99.90;;;;;;5053101;28;20261;-85
2022/05/04 01:59:09;;;;;;;7.10;3.00;;;3.40;99.90;;;;;;5034905;28;20626;-86
2022/05/04 02:01:35;;;;;;;9.93;3.80;;;3.50;99.90;;;;;;5052969;28;20173;-85
2022/05/04 02:04:02;;;;;;;6.20;3.00;;;3.40;99.90;;;;;;5052928;28;20176;-86
2022/05/04 02:06:47;;;;;;;14.73;4.23;;;3.40;99.90;;;;;;5052914;28;20432;-85
2022/05/04 02:09:13;;;;;;;8.60;3.07;;;3.50;99.90;;;;;;5037747;28;20503;-86
2022/05/04 02:11:38;;;;;;;3.27;2.67;;;3.40;99.90;;;;;;5039226;28;20559;-85
2022/05/04 02:14:05;;;;;;;6.57;2.40;;;3.30;99.90;;;;;;5056757;28;20412;-86
2022/05/04 02:16:31;;;;;;;7.60;2.70;;;3.40;99.90;;;;;;5057033;28;20173;-86
2022/05/04 02:18:57;;;;;;;9.73;3.27;;;3.50;99.90;;;;;;5057176;28;20419;-86
2022/05/04 02:21:23;;;;;;;5.47;3.33;;;3.50;99.90;;;;;;5057024;28;20162;-86
2022/05/04 02:23:49;;;;;;;6.70;3.27;;;3.50;99.90;;;;;;5056948;28;20781;-87
2022/05/04 02:26:14;;;;;;;11.13;3.20;;;3.60;99.90;;;;;;5056952;28;20418;-86
2022/05/04 02:28:40;;;;;;;6.20;3.23;;;3.60;99.90;;;;;;5056510;28;20218;-86
2022/05/04 02:31:05;;;;;;;11.80;3.47;;;3.50;99.90;;;;;;5038882;28;20197;-86
2022/05/04 02:33:31;;;;;;;5.73;3.43;;;3.40;99.90;;;;;;5038925;28;20633;-85
2022/05/04 02:38:41;;;;;;;8.47;3.70;;;3.50;99.90;;;;;;5056735;28;20185;-85
2022/05/04 02:41:07;;;;;;;6.00;3.17;;;3.40;99.90;;;;;;5056501;28;20408;-85
2022/05/04 02:43:33;;;;;;;9.63;2.80;;;3.40;99.90;;;;;;5038130;28;20464;-85
2022/05/04 02:46:11;;;;;;;5.50;3.20;;;3.50;99.90;;;;;;5056509;28;20170;-86
2022/05/04 02:48:38;;;;;;;9.10;4.20;;;3.40;99.90;;;;;;5056491;28;20430;-85
2022/05/04 02:51:04;;;;;;;4.47;3.40;;;3.30;99.90;;;;;;5056258;28;20487;-85
2022/05/04 02:53:29;;;;;;;9.87;3.70;;;3.30;99.90;;;;;;5056383;28;20916;-85
2022/05/04 02:55:55;;;;;;;5.10;4.20;;;3.30;99.90;;;;;;5038332;28;20626;-86
2022/05/04 02:58:20;;;;;;;8.87;3.37;;;3.30;99.90;;;;;;5038043;28;20649;-85
2022/05/04 03:00:46;;;;;;;4.10;2.70;;;3.30;99.90;;;;;;5056004;28;20176;-86
2022/05/04 03:03:11;;;;;;;5.93;2.80;;;3.40;99.90;;;;;;5038206;28;20769;-85
2022/05/04 03:05:37;;;;;;;5.67;2.53;;;3.30;99.90;;;;;;5038219;28;20172;-85
2022/05/04 03:08:02;;;;;;;7.97;3.40;;;3.30;99.90;;;;;;5038086;28;20177;-85
2022/05/04 03:10:28;;;;;;;5.30;3.63;;;3.30;99.90;;;;;;5038037;28;20173;-84
2022/05/04 03:12:53;;;;;;;5.30;3.73;;;3.20;99.90;;;;;;5055434;28;20205;-85
2022/05/04 03:15:19;;;;;;;5.00;2.77;;;3.20;99.90;;;;;;5037957;28;20166;-85
2022/05/04 03:17:44;;;;;;;7.13;3.23;;;3.10;99.90;;;;;;5055770;28;20170;-84
2022/05/04 03:20:12;;;;;;;7.40;3.67;;;3.10;99.90;;;;;;5036638;28;20201;-84
2022/05/04 03:22:38;;;;;;;6.97;3.60;;;3.20;99.90;;;;;;5055703;28;20653;-84
2022/05/04 03:25:08;;;;;;;6.43;3.80;;;3.30;99.90;;;;;;5055634;28;20412;-85
2022/05/04 03:27:34;;;;;;;12.83;6.13;;;3.40;99.90;;;;;;5055209;28;20417;-84
2022/05/04 03:29:59;;;;;;;6.70;4.67;;;3.60;99.90;;;;;;5055648;28;20416;-85
2022/05/04 03:32:25;;;;;;;7.47;3.43;;;3.70;99.90;;;;;;5037609;28;20468;-86
2022/05/04 03:34:50;;;;;;;8.80;4.97;;;3.60;99.90;;;;;;5055509;28;20173;-86
2022/05/04 03:37:16;;;;;;;9.50;4.77;;;3.80;99.90;;;;;;5055587;28;20169;-86
2022/05/04 03:39:41;;;;;;;10.07;3.87;;;3.90;99.90;;;;;;5055490;28;20578;-85
2022/05/04 03:42:07;;;;;;;6.20;3.37;;;3.90;99.90;;;;;;5055478;28;20197;-86
2022/05/04 03:44:33;;;;;;;12.97;4.33;;;4.00;99.90;;;;;;5054869;28;20213;-86
2022/05/04 03:46:58;;;;;;;5.77;4.40;;;3.90;99.90;;;;;;5055385;28;20469;-86
2022/05/04 03:49:24;;;;;;;7.80;3.63;;;3.90;99.90;;;;;;5037397;28;20621;-85
2022/05/04 03:51:50;;;;;;;10.13;3.70;;;3.70;99.90;;;;;;5055192;28;20245;-86
2022/05/04 03:54:16;;;;;;;5.17;3.83;;;3.80;99.90;;;;;;5055378;28;20244;-86
2022/05/04 03:56:41;;;;;;;11.53;4.50;;;3.80;99.90;;;;;;5055157;28;20822;-86
2022/05/04 03:59:08;;;;;;;7.93;3.80;;;3.70;99.90;;;;;;5054712;28;20192;-86
2022/05/04 04:01:33;;;;;;;15.73;5.07;;;3.60;99.90;;;;;;5055016;28;20419;-86
2022/05/04 04:03:59;;;;;;;5.10;3.03;;;3.60;99.90;;;;;;5054935;28;20397;-85
2022/05/04 04:06:25;;;;;;;9.37;4.47;;;3.70;99.90;;;;;;5055044;28;20529;-86
2022/05/04 04:08:51;;;;;;;9.23;3.77;;;3.80;99.90;;;;;;5054996;28;20168;-86
2022/05/04 04:11:18;;;;;;;11.73;5.00;;;3.70;99.90;;;;;;5037003;28;20463;-85
2022/05/04 04:13:44;;;;;;;4.80;3.40;;;3.70;99.90;;;;;;5054516;28;20478;-86
2022/05/04 04:16:10;;;;;;;8.13;3.50;;;3.60;99.90;;;;;;5054755;28;20415;-85
2022/05/04 04:18:35;;;;;;;7.20;3.20;;;3.60;99.90;;;;;;5054691;28;20167;-85
2022/05/04 04:23:44;;;;;;;10.27;4.90;;;3.60;99.90;;;;;;5054712;28;20292;-85
2022/05/04 04:26:10;;;;;;;5.10;3.23;;;3.70;99.90;;;;;;5036665;28;20473;-85
2022/05/04 04:28:39;;;;;;;8.57;4.30;;;3.60;99.90;;;;;;5054095;28;20661;-86
2022/05/04 04:31:05;;;;;;;8.30;4.80;;;3.60;99.90;;;;;;5054169;28;20977;-85
2022/05/04 04:33:31;;;;;;;6.97;4.10;;;3.50;99.90;;;;;;5054315;28;20443;-84
2022/05/04 04:35:58;;;;;;;7.33;3.93;;;3.50;99.90;;;;;;5054374;28;20902;-85
2022/05/04 04:38:23;;;;;;;7.57;3.63;;;3.60;99.90;;;;;;5054299;28;20181;-85
2022/05/04 04:40:50;;;;;;;8.27;3.00;;;3.50;99.90;;;;;;5036383;28;20909;-83
2022/05/04 04:43:15;;;;;;;8.37;4.13;;;3.60;99.90;;;;;;5053690;28;20166;-83
2022/05/04 04:45:43;;;;;;;5.20;3.70;;;3.60;99.90;;;;;;5054099;28;20482;-83
2022/05/04 04:48:09;;;;;;;6.77;4.00;;;3.70;99.90;;;;;;5054045;28;20430;-84
2022/05/04 04:50:35;;;;;;;5.83;3.43;;;3.80;99.90;;;;;;5054128;28;20412;-84
2022/05/04 04:53:01;;;;;;;5.33;4.20;;;3.90;99.90;;;;;;5035962;28;20217;-84
2022/05/04 04:55:26;;;;;;;8.07;3.63;;;4.10;99.90;;;;;;5053942;28;20419;-84
2022/05/04 04:57:52;;;;;;;11.47;3.67;;;4.10;99.90;;;;;;5035731;28;20540;-84
2022/05/04 05:00:18;;;;;;;11.50;4.60;;;4.20;99.90;;;;;;5053873;28;20296;-85
2022/05/04 05:02:44;;;;;;;10.27;4.30;;;4.40;99.90;;;;;;5053533;28;20252;-84
2022/05/04 05:05:09;;;;;;;7.50;4.53;;;4.60;99.90;;;;;;5053635;28;20173;-84
2022/05/04 05:07:36;;;;;;;7.10;3.73;;;4.80;99.90;;;;;;5053663;28;20418;-85
2022/05/04 05:10:02;;;;;;;11.17;4.83;;;5.00;99.90;;;;;;5035879;28;20177;-84
2022/05/04 05:12:27;;;;;;;9.23;5.40;;;5.20;99.90;;;;;;5053204;28;21062;-85
2022/05/04 05:17:37;;;;;;;12.63;3.93;;;5.50;99.90;;;;;;5053642;28;20233;-86
2022/05/04 05:20:04;;;;;;;6.60;4.53;;;5.60;99.90;;;;;;5053547;28;20839;-85
2022/05/04 05:22:31;;;;;;;8.80;3.63;;;5.80;99.90;;;;;;5053245;28;20625;-85
2022/05/04 05:24:56;;;;;;;5.30;3.13;;;6.10;99.90;;;;;;5035422;28;20932;-85
2022/05/04 05:27:22;;;;;;;9.07;4.77;;;6.30;99.90;;;;;;5034991;28;20456;-85
2022/05/04 05:29:49;;;;;;;9.53;4.30;;;6.50;99.90;;;;;;5035624;28;20181;-85
2022/05/04 05:32:14;;;;;;;5.50;3.87;;;6.90;99.90;;;;;;5052382;28;20479;-85
2022/05/04 05:34:40;;;;;;;15.70;5.50;;;7.20;99.90;;;;;;5033910;28;20917;-85
2022/05/04 05:37:06;;;;;;;8.00;4.13;;;7.50;99.90;;;;;;5034081;28;20639;-85
2022/05/04 05:39:32;;;;;;;14.27;5.00;;;7.60;99.90;;;;;;5035222;28;20927;-86
2022/05/04 05:41:57;;;;;;;12.03;3.87;;;7.60;99.90;;;;;;5052799;28;20524;-86
2022/05/04 05:44:23;;;;;;;6.07;3.97;;;7.60;99.90;;;;;;5034653;28;20341;-85
2022/05/04 05:46:48;;;;;;;9.30;3.80;;;7.40;99.90;;;;;;5035252;28;20209;-85
2022/05/04 05:49:14;;;;;;;7.97;3.57;;;7.60;99.90;;;;;;5053118;28;20639;-85
2022/05/04 05:51:40;;;;;;;7.53;3.83;;;8.10;1.80;;;;;;5053203;28;20211;-86
2022/05/04 05:54:05;;;;;;;7.43;3.80;;;8.70;1.00;;;;;;5053181;28;20498;-86
2022/05/04 05:56:31;;;;;;;5.70;2.20;;;9.10;99.90;;;;;;5053057;28;20179;-86
2022/05/04 05:58:57;;;;;;;7.67;3.70;;;9.50;1.00;;;;;;5053088;28;20170;-87
2022/05/04 06:01:22;;;;;;;5.03;1.80;;;9.80;1.00;;;;;;5053304;28;20265;-82
2022/05/04 06:03:49;;;;;;;9.33;2.57;;;10.10;1.00;;;;;;5052945;28;20534;-82
2022/05/04 06:06:14;;;;;;;7.10;1.93;;;10.80;99.90;;;;;;5052943;28;20221;-82
2022/05/04 06:08:40;;;;;;;7.10;2.53;;;11.30;27.70;;;;;;5052776;28;20876;-82
2022/05/04 06:11:06;;;;;;;7.07;2.30;;;11.80;1.00;;;;;;5053009;28;20232;-83
2022/05/04 06:13:31;;;;;;;4.53;1.90;;;12.40;99.90;;;;;;5052707;28;20193;-83
2022/05/04 06:15:57;;;;;;;5.63;2.57;;;13.40;99.90;;;;;;5053178;28;20173;-83
2022/05/04 06:18:23;;;;;;;7.93;3.00;;;14.00;99.90;;;;;;5053116;28;20170;-83
2022/05/04 06:20:48;;;;;;;6.33;2.80;;;14.30;99.90;;;;;;5053098;28;20691;-80
2022/05/04 06:23:14;;;;;;;6.73;2.40;;;14.70;95.70;;;;;;5053005;28;20507;-80
2022/05/04 06:25:42;;;;;;;9.73;2.80;;;15.50;55.90;;;;;;5052931;28;20225;-81
2022/05/04 06:28:11;;;;;;;8.90;2.67;;;15.70;42.90;;;;;;5052426;28;20266;-81
2022/05/04 06:36:06;;;;;;;7.33;2.30;;;16.50;5.90;;;;;;5024751;28;20906;-82
2022/05/04 06:38:31;;;;;;;7.37;2.83;;;17.00;1.00;;;;;;5053472;28;20434;-82
2022/05/04 06:40:57;;;;;;;5.70;2.50;;;17.10;1.00;;;;;;5053115;28;20218;-84
2022/05/04 06:43:23;;;;;;;4.67;2.17;;;17.10;1.00;;;;;;5052510;28;21739;-83
2022/05/04 06:45:49;;;;;;;5.87;1.93;;;17.30;1.00;;;;;;5052776;28;20536;-82
2022/05/04 06:48:15;;;;;;;5.90;1.97;;;17.30;1.00;;;;;;5052798;28;20416;-83
2022/05/04 06:50:40;;;;;;;7.07;2.37;;;17.50;1.00;;;;;;5052720;28;20406;-83
2022/05/04 06:53:12;;;;;;;3.77;1.80;;;17.80;1.00;;;;;;5052546;28;20612;-84
2022/05/04 06:55:38;;;;;;;4.37;1.90;;;17.80;1.00;;;;;;5056188;28;20529;-84
2022/05/04 06:58:04;;;;;;;7.30;2.37;;;18.00;1.00;;;;;;5056170;28;20420;-83
2022/05/04 07:00:30;;;;;;;4.90;1.90;;;18.30;1.00;;;;;;5056157;28;20962;-82
2022/05/04 07:02:55;;;;;;;4.13;1.57;;;17.90;1.00;;;;;;5056131;28;20171;-80
2022/05/04 07:05:20;;;;;;;3.90;1.63;;;18.60;1.00;;;;;;5055919;28;20674;-83
2022/05/04 07:07:46;;;;;;;5.57;1.90;;;18.50;1.00;;;;;;5055890;28;20180;-80
2022/05/04 07:10:11;;;;;;;11.37;2.70;;;18.50;1.00;;;;;;5055774;28;20184;-83
2022/05/04 07:12:37;;;;;;;12.07;3.37;;;18.70;1.00;;;;;;5055524;28;20221;-83
2022/05/04 07:15:03;;;;;;;6.47;2.10;;;18.60;1.00;;;;;;5055879;28;20176;-84
2022/05/04 07:17:29;;;;;;;4.33;1.70;;;18.60;1.00;;;;;;5055762;28;20176;-80
2022/05/04 07:19:54;;;;;;;5.70;1.90;;;18.20;1.00;;;;;;5055720;28;20418;-81
2022/05/04 07:22:21;;;;;;;3.50;1.03;;;18.90;1.00;;;;;;5037804;28;20174;-82
2022/05/04 07:24:47;;;;;;;8.60;1.50;;;19.70;1.00;;;;;;5037820;28;20209;-81
2022/05/04 07:27:12;;;;;;;3.97;0.73;;;18.70;1.00;;;;;;5055400;28;20477;-82
2022/05/04 07:29:38;;;;;;;6.30;1.30;;;19.20;1.00;;;;;;5055674;28;20564;-81
2022/05/04 07:32:04;;;;;;;4.83;0.97;;;20.60;1.00;;;;;;5055494;28;20542;-81
2022/05/04 07:34:30;;;;;;;3.70;1.23;;;20.40;1.00;;;;;;5055635;28;20180;-84
2022/05/04 07:36:56;;;;;;;4.47;0.97;;;20.50;1.00;;;;;;5055493;28;20431;-85
2022/05/04 07:42:27;;;;;;;5.20;0.90;;;20.60;1.00;;;;;;5055505;28;20438;-84
2022/05/04 07:45:04;;;;;;;4.93;1.33;;;20.50;1.00;;;;;;5055186;28;20550;-83
2022/05/04 07:47:34;;;;;;;4.77;1.07;;;20.90;1.00;;;;;;5055144;28;20827;-83
2022/05/04 07:50:00;;;;;;;4.30;0.93;;;21.00;1.00;;;;;;5055250;28;20417;-83
2022/05/04 07:52:26;;;;;;;5.27;1.00;;;20.80;1.00;;;;;;5055099;28;20483;-83
2022/05/04 07:54:52;;;;;;;2.60;0.53;;;21.20;1.00;;;;;;5055090;28;20904;-82
2022/05/04 07:57:17;;;;;;;3.03;0.87;;;21.00;1.00;;;;;;5036846;28;20928;-82
2022/05/04 08:04:16;;;;;;;3.07;1.00;;;21.00;1.00;;;;;;5055065;28;20470;-81
2022/05/04 08:05:12;;;;;;;5.77;1.47;;;21.00;1.00;;;;;;5054799;28;20822;-83
2022/05/04 08:07:38;;;;;;;6.40;1.43;;;20.80;1.00;;;;;;5036732;28;20444;-80
2022/05/04 08:10:04;;;;;;;6.03;1.13;;;21.20;1.00;;;;;;5054893;28;20248;-80
2022/05/04 08:12:32;;;;;;;4.53;1.00;;;21.20;1.00;;;;;;5054406;28;20685;-80
2022/05/04 08:14:57;;;;;;;3.10;0.90;;;21.30;1.00;;;;;;5054687;28;20481;-81
2022/05/04 08:17:23;;;;;;;4.97;1.80;;;21.30;1.00;;;;;;5054653;28;20906;-82
2022/05/04 08:19:48;;;;;;;3.97;1.20;;;21.40;1.00;;;;;;5054608;28;20165;-81
2022/05/04 08:22:14;;;;;;;3.90;1.30;;;21.80;1.00;;;;;;5054632;28;20174;-81
2022/05/04 08:24:40;;;;;;;3.70;1.07;;;21.30;1.00;;;;;;5054504;28;20178;-84
2022/05/04 08:27:06;;;;;;;7.80;1.80;;;21.70;1.00;;;;;;5054152;28;20910;-82
2022/05/04 08:29:31;;;;;;;2.77;1.10;;;21.50;1.00;;;;;;5054728;28;20169;-81
2022/05/04 08:31:59;;;;;;;5.67;3.10;;;21.80;1.00;;;;;;5054337;28;20213;-83
2022/05/04 08:34:24;;;;;;;4.20;2.07;;;21.80;1.00;;;;;;5054357;28;20180;-81
2022/05/04 08:36:50;;;;;;;34.87;23.60;;;21.80;1.00;;;;;;5054305;28;20416;-81
2022/05/04 08:39:15;;;;;;;8.40;2.40;;;21.30;1.00;;;;;;5054251;28;20527;-81
2022/05/04 08:41:42;;;;;;;5.53;1.60;;;21.50;1.00;;;;;;5053784;28;20176;-81
2022/05/04 08:44:10;;;;;;;3.17;2.17;;;21.50;1.00;;;;;;5053944;28;20614;-82
2022/05/04 08:46:38;;;;;;;5.70;1.83;;;21.30;1.00;;;;;;5069680;28;20419;-80
2022/05/04 08:49:05;;;;;;;3.00;1.73;;;21.50;1.00;;;;;;5073340;28;20473;-81
2022/05/04 08:51:33;;;;;;;5.60;1.67;;;22.10;1.00;;;;;;5072198;28;20548;-84
2022/05/04 08:53:59;;;;;;;3.93;2.13;;;22.30;1.00;;;;;;5073665;28;20998;-81
2022/05/04 08:56:24;;;;;;;4.63;1.63;;;19.70;1.00;;;;;;5072970;28;20515;-83
2022/05/04 08:58:50;;;;;;;7.27;2.30;;;17.80;1.00;;;;;;5053770;28;20508;-82
2022/05/04 09:01:15;;;;;;;5.70;2.17;;;16.60;1.00;;;;;;5053405;28;20169;-83
2022/05/04 09:03:40;;;;;;;8.57;2.60;;;16.30;1.00;;;;;;5053496;28;20689;-81
2022/05/04 09:06:06;;;;;;;5.70;2.40;;;16.10;1.00;;;;;;5053515;28;20230;-82
2022/05/04 09:08:55;;;;;;;7.87;2.17;;;15.90;1.00;;;;;;5058455;28;20179;-82
2022/05/04 09:11:22;;;;;;;9.80;2.90;;;16.30;1.00;;;;;;5072964;28;20259;-83
2022/05/04 09:13:48;;;;;;;8.63;2.10;;;16.30;1.00;;;;;;5051155;28;20439;-83
2022/05/04 09:16:32;;;;;;;5.77;2.03;;;16.40;1.00;;;;;;5016993;28;20426;-84
2022/05/04 09:19:05;;;;;;;4.40;2.43;;;17.40;1.00;;;;;;5031849;28;20429;-83
2022/05/04 09:21:31;;;;;;;7.27;2.83;;;16.60;1.00;;;;;;5015315;28;20420;-86
2022/05/04 09:23:56;;;;;;;3.60;2.30;;;17.30;1.00;;;;;;5033133;28;20431;-84
2022/05/04 09:26:23;;;;;;;6.43;1.93;;;18.10;1.00;;;;;;5032925;28;20176;-83
2022/05/04 09:28:50;;;;;;;5.07;1.70;;;16.40;1.00;;;;;;5049775;28;20709;-83
2022/05/04 09:31:18;;;;;;;4.60;1.90;;;17.20;1.00;;;;;;5052983;28;20462;-85
2022/05/04 09:33:51;;;;;;;7.40;2.10;;;20.40;1.00;;;;;;5034707;28;20939;-86
2022/05/04 09:36:28;;;;;;;5.23;1.60;;;20.60;1.00;;;;;;5056439;28;20770;-86
2022/05/04 09:47:21;;;;;;;5.17;2.70;;;17.70;1.00;;;;;;5073304;28;20421;-87
2022/05/04 09:49:48;;;;;;;4.20;2.73;;;17.30;1.00;;;;;;5073348;28;20413;-89
2022/05/04 09:52:15;;;;;;;3.37;2.03;;;17.90;1.00;;;;;;5073708;28;20476;-89
2022/05/04 09:54:41;;;;;;;5.33;1.80;;;19.00;1.00;;;;;;5073440;28;20501;-89
2022/05/04 09:57:07;;;;;;;4.43;2.00;;;18.60;1.00;;;;;;5073316;28;20495;-89
2022/05/04 09:59:34;;;;;;;4.40;1.90;;;18.90;1.00;;;;;;5055928;28;20180;-89
2022/05/04 10:02:03;;;;;;;3.87;1.67;;;18.20;1.00;;;;;;5073855;28;20259;-88
2022/05/04 10:04:32;;;;;;;5.37;2.20;;;18.00;1.00;;;;;;5055718;28;20439;-90
2022/05/04 10:07:00;;;;;;;5.67;2.17;;;18.50;1.00;;;;;;5073956;28;20781;-88
2022/05/04 10:09:26;;;;;;;5.03;1.40;;;18.30;1.00;;;;;;5074292;28;20736;-89
2022/05/04 10:11:59;;;;;;;5.37;1.70;;;20.10;1.00;;;;;;5074170;28;20481;-92
2022/05/04 10:14:26;;;;;;;4.87;3.70;;;19.80;1.00;;;;;;5074280;28;20427;-90
2022/05/04 10:17:12;;;;;;;4.00;1.37;;;20.30;1.00;;;;;;5073572;28;20404;-89
2022/05/04 10:20:11;;;;;;;5.60;2.30;;;20.30;1.00;;;;;;5073627;28;20771;-88
2022/05/04 10:22:41;;;;;;;7.30;2.37;;;19.70;1.00;;;;;;5073220;28;20419;-87
2022/05/04 10:25:08;;;;;;;7.93;2.60;;;20.10;1.00;;;;;;5078076;28;20419;-87
2022/05/04 10:27:41;;;;;;;6.20;2.70;;;20.80;1.00;;;;;;5072397;28;20482;-86
2022/05/04 10:32:57;;;;;;;8.67;2.10;;;19.50;1.00;;;;;;5077158;28;20501;-89
2022/05/04 10:35:34;;;;;;;5.00;2.23;;;18.30;1.00;;;;;;5077228;28;20399;-90
2022/05/04 10:37:59;;;;;;;7.20;2.40;;;18.10;1.00;;;;;;5077256;28;20760;-86
2022/05/04 10:40:43;;;;;;;13.20;2.00;;;17.80;1.00;;;;;;5077319;28;20414;-88
2022/05/04 10:43:08;;;;;;;6.63;2.80;;;18.20;1.00;;;;;;5076597;28;20169;-85
2022/05/04 10:45:36;;;;;;;4.40;2.47;;;18.40;1.00;;;;;;5059195;28;20939;-89
2022/05/04 10:48:20;;;;;;;6.17;3.00;;;18.80;1.00;;;;;;5076748;28;20246;-86
2022/05/04 10:50:51;;;;;;;6.57;2.30;;;18.30;1.00;;;;;;5077031;28;20410;-86
2022/05/04 10:53:25;;;;;;;3.80;2.50;;;18.10;1.00;;;;;;5077503;28;20430;-87
2022/05/04 10:56:04;;;;;;;6.37;1.80;;;18.40;1.00;;;;;;5076765;28;20430;-88
2022/05/04 10:58:35;;;;;;;3.87;2.20;;;19.70;1.00;;;;;;5085408;28;20407;-89
2022/05/04 11:01:04;;;;;;;4.30;2.00;;;20.70;1.00;;;;;;5081411;28;20425;-84
2022/05/04 11:03:38;;;;;;;4.20;2.97;;;21.10;1.00;;;;;;5072963;28;20514;-85
2022/05/04 11:06:10;;;;;;;8.90;2.10;;;20.90;1.00;;;;;;5075025;28;20526;-85
2022/05/04 11:08:36;;;;;;;5.80;3.20;;;21.90;1.00;;;;;;5074721;28;20419;-84
2022/05/04 11:11:03;;;;;;;5.23;2.80;;;22.10;1.00;;;;;;5074667;28;20464;-85
2022/05/04 11:13:30;;;;;;;5.40;1.97;;;21.90;1.00;;;;;;5074988;28;20419;-86
2022/05/04 11:15:59;;;;;;;5.10;2.80;;;21.40;1.00;;;;;;5075227;28;20863;-85
2022/05/04 11:18:24;;;;;;;6.23;2.40;;;21.50;1.00;;;;;;5074652;28;20415;-84
2022/05/04 11:20:50;;;;;;;5.93;2.70;;;20.70;1.00;;;;;;5074664;28;20453;-87
2022/05/04 11:23:23;;;;;;;4.40;2.80;;;21.60;1.00;;;;;;5077127;28;20196;-93
2022/05/04 11:25:50;;;;;;;4.23;2.00;;;21.70;1.00;;;;;;5081141;28;20173;-94
2022/05/04 11:28:34;;;;;;;5.07;2.17;;;20.50;1.00;;;;;;5077063;28;20400;-90
2022/05/04 11:30:59;;;;;;;5.63;2.30;;;21.50;1.00;;;;;;5076813;28;20419;-89
2022/05/04 11:33:25;;;;;;;5.80;3.73;;;22.40;1.00;;;;;;5070939;28;20428;-90
2022/05/04 11:35:53;;;;;;;10.13;3.07;;;22.30;1.00;;;;;;5055130;28;20166;-89
2022/05/04 11:38:20;;;;;;;5.00;2.27;;;22.30;1.00;;;;;;5056138;28;20174;-91
2022/05/04 11:40:46;;;;;;;4.00;2.63;;;22.40;1.00;;;;;;5037410;28;20442;-92
2022/05/04 11:43:34;;;;;;;2.73;2.13;;;20.80;1.00;;;;;;5056712;28;20554;-94
2022/05/04 11:46:09;;;;;;;6.43;3.30;;;20.80;1.00;;;;;;5037398;28;20443;-85
2022/05/04 11:48:43;;;;;;;7.87;3.20;;;20.50;1.00;;;;;;5055301;28;20423;-91
2022/05/04 11:51:14;;;;;;;3.97;2.40;;;20.20;1.00;;;;;;5056471;28;20400;-91
2022/05/04 11:53:40;;;;;;;8.53;3.10;;;20.10;1.00;;;;;;5055482;28;20416;-86
2022/05/04 11:56:07;;;;;;;5.20;2.60;;;20.60;1.00;;;;;;5055434;28;20412;-92
2022/05/04 11:58:34;;;;;;;3.97;2.00;;;20.50;1.00;;;;;;5056045;28;20412;-90
2022/05/04 12:01:01;;;;;;;3.97;2.20;;;21.00;1.00;;;;;;5056978;28;20419;-87
2022/05/04 12:03:29;;;;;;;6.97;2.57;;;20.40;1.00;;;;;;5036824;28;20473;-85
2022/05/04 12:05:55;;;;;;;7.00;2.87;;;21.40;1.00;;;;;;5036399;28;20448;-89
2022/05/04 12:08:22;;;;;;;10.27;2.70;;;21.60;1.00;;;;;;5054599;28;21179;-88
2022/05/04 12:10:49;;;;;;;6.93;3.33;;;21.10;1.00;;;;;;5035945;28;20416;-87
2022/05/04 12:13:22;;;;;;;5.03;2.83;;;20.50;1.00;;;;;;5053571;28;20457;-85
2022/05/04 12:15:49;;;;;;;4.83;2.90;;;20.60;1.00;;;;;;5053787;28;20924;-83
2022/05/04 12:18:15;;;;;;;7.43;2.83;;;20.50;1.00;;;;;;5054120;28;20475;-80
2022/05/04 12:20:43;;;;;;;4.23;2.47;;;20.60;1.00;;;;;;5054314;28;20451;-79
2022/05/04 12:23:10;;;;;;;6.37;2.80;;;20.70;1.00;;;;;;5054398;28;20216;-79
2022/05/04 12:25:36;;;;;;;3.77;2.50;;;20.50;1.00;;;;;;5054364;28;20911;-79
2022/05/04 12:28:01;;;;;;;5.40;2.67;;;21.20;1.00;;;;;;5054049;28;20420;-80
2022/05/04 12:33:12;;;;;;;6.10;3.10;;;22.00;1.00;;;;;;5054394;28;20180;-80
2022/05/04 12:35:42;;;;;;;5.87;2.60;;;22.40;1.00;;;;;;5054427;28;21251;-80
2022/05/04 12:38:08;;;;;;;4.80;2.53;;;21.70;1.00;;;;;;5054295;28;20189;-80
2022/05/04 12:40:35;;;;;;;5.00;2.70;;;21.90;1.00;;;;;;5054237;28;20420;-80
2022/05/04 12:43:03;;;;;;;6.27;2.40;;;22.60;1.00;;;;;;5053739;28;20831;-80
2022/05/04 12:45:30;;;;;;;8.93;3.37;;;22.50;1.00;;;;;;5054127;28;20478;-79
2022/05/04 12:47:57;;;;;;;6.70;3.00;;;21.00;1.00;;;;;;5053690;28;20412;-80
2022/05/04 12:50:24;;;;;;;6.63;2.63;;;21.00;1.00;;;;;;5048889;28;20422;-79
2022/05/04 12:52:50;;;;;;;5.83;2.57;;;19.90;1.00;;;;;;5051542;28;20424;-78
2022/05/04 12:55:17;;;;;;;4.33;2.27;;;19.90;1.00;;;;;;5053317;28;20477;-80
2022/05/04 12:57:43;;;;;;;5.63;2.93;;;20.60;1.00;;;;;;5052845;28;20919;-79
2022/05/04 13:00:13;;;;;;;4.70;4.20;;;20.20;1.00;;;;;;5053453;28;20416;-81
2022/05/04 13:02:42;;;;;;;5.93;2.97;;;20.30;1.00;;;;;;5053522;28;20515;-79
2022/05/04 13:05:10;;;;;;;5.40;3.10;;;20.70;1.00;;;;;;5051004;28;20412;-79
2022/05/04 13:07:36;;;;;;;4.77;2.80;;;20.50;1.00;;;;;;5053214;28;20431;-79
2022/05/04 13:10:05;;;;;;;5.27;2.33;;;20.40;1.00;;;;;;5053211;28;20416;-79
2022/05/04 13:12:30;;;;;;;5.83;2.83;;;20.70;1.00;;;;;;5052848;28;20415;-80
2022/05/04 13:14:56;;;;;;;8.93;3.13;;;21.20;1.00;;;;;;5053264;28;20465;-81
2022/05/04 13:17:21;;;;;;;3.97;2.27;;;21.10;1.00;;;;;;5053039;28;20166;-80
2022/05/04 13:19:47;;;;;;;6.77;2.30;;;20.80;1.00;;;;;;5053014;28;20166;-81
2022/05/04 13:22:13;;;;;;;7.10;2.60;;;20.50;1.00;;;;;;5052979;28;20209;-81
2022/05/04 13:24:39;;;;;;;6.50;2.70;;;20.90;1.00;;;;;;5052969;28;20189;-80
2022/05/04 13:27:05;;;;;;;7.30;2.20;;;21.10;1.00;;;;;;5049862;28;20201;-81
2022/05/04 13:29:31;;;;;;;6.70;2.83;;;21.00;1.00;;;;;;5035045;28;20170;-82
2022/05/04 13:31:57;;;;;;;6.30;2.33;;;21.00;1.00;;;;;;5035092;28;20416;-81